Time;durP1;ratioP1;P1;durP2;ratioP2;P2;SDS_P1;SDS_P2;PMS_P1;PMS_P2;Temp;Humidity;BMP_temperature;BMP_pressure;BME280_temperature;BME280_humidity;BME280_pressure;Samples;Min_cycle;Max_cycle;Signal;HPM_P1;HPM_P2
2023/10/30 00:00:09;;;;;;;2.17;0.77;;;11.70;99.90;;;;;;5042129;28;20024;-36
2023/10/30 00:02:39;;;;;;;2.28;0.90;;;11.70;99.90;;;;;;5041693;28;20028;-36
2023/10/30 00:05:06;;;;;;;3.22;1.02;;;11.60;99.90;;;;;;5041738;28;20024;-36
2023/10/30 00:07:32;;;;;;;1.88;0.80;;;11.60;99.90;;;;;;5041579;28;20503;-36
2023/10/30 00:09:57;;;;;;;2.78;1.00;;;11.60;99.90;;;;;;5041412;28;20028;-37
2023/10/30 00:12:23;;;;;;;3.58;0.95;;;11.60;99.90;;;;;;5042661;28;20040;-37
2023/10/30 00:14:50;;;;;;;2.75;1.05;;;11.50;99.90;;;;;;5042739;28;20067;-36
2023/10/30 00:17:16;;;;;;;1.75;1.00;;;11.50;99.90;;;;;;5041558;28;20036;-36
2023/10/30 00:19:42;;;;;;;3.60;0.85;;;11.50;99.90;;;;;;5042200;28;20029;-36
2023/10/30 00:22:11;;;;;;;3.08;1.10;;;11.50;99.90;;;;;;5041471;28;20033;-37
2023/10/30 00:24:39;;;;;;;2.70;1.00;;;11.50;99.90;;;;;;5041706;28;20610;-35
2023/10/30 00:27:05;;;;;;;3.05;1.25;;;11.40;99.90;;;;;;5038265;28;20065;-34
2023/10/30 00:29:30;;;;;;;3.90;1.25;;;11.40;99.90;;;;;;5042099;28;20049;-35
2023/10/30 00:31:56;;;;;;;2.45;1.20;;;11.40;99.90;;;;;;5041964;28;20025;-36
2023/10/30 00:34:22;;;;;;;3.80;1.48;;;11.40;99.90;;;;;;5042085;28;20045;-36
2023/10/30 00:36:47;;;;;;;4.72;1.33;;;11.40;99.90;;;;;;5041879;28;20031;-36
2023/10/30 00:39:13;;;;;;;3.53;1.48;;;11.40;99.90;;;;;;5041109;28;20028;-36
2023/10/30 00:41:38;;;;;;;4.57;1.25;;;11.30;99.90;;;;;;5041960;28;20140;-36
2023/10/30 00:44:04;;;;;;;3.28;1.10;;;11.30;99.90;;;;;;5041553;28;20132;-35
2023/10/30 00:46:29;;;;;;;4.30;1.20;;;11.40;99.90;;;;;;5041511;28;20043;-36
2023/10/30 00:48:58;;;;;;;4.78;1.20;;;11.40;99.90;;;;;;5041805;28;20033;-35
2023/10/30 00:51:26;;;;;;;3.55;1.65;;;11.40;99.90;;;;;;5041123;28;20033;-35
2023/10/30 00:53:51;;;;;;;5.20;1.20;;;11.40;99.90;;;;;;5041557;28;20186;-36
2023/10/30 00:56:23;;;;;;;6.45;1.88;;;11.40;99.90;;;;;;5040224;28;20025;-37
2023/10/30 00:59:00;;;;;;;3.25;1.83;;;11.50;99.90;;;;;;5041063;28;20024;-38
2023/10/30 01:01:26;;;;;;;4.20;1.77;;;11.50;99.90;;;;;;5041808;28;20021;-37
2023/10/30 01:03:52;;;;;;;4.03;1.50;;;11.50;99.90;;;;;;5041620;28;20490;-37
2023/10/30 01:06:21;;;;;;;7.03;2.17;;;11.50;99.90;;;;;;5040425;28;20041;-36
2023/10/30 01:08:46;;;;;;;4.18;1.40;;;11.50;99.90;;;;;;5041645;28;20875;-36
2023/10/30 01:11:12;;;;;;;8.48;1.90;;;11.60;99.90;;;;;;5040481;28;20044;-38
2023/10/30 01:13:37;;;;;;;5.35;1.60;;;11.60;99.90;;;;;;5040702;28;20021;-36
2023/10/30 01:16:06;;;;;;;6.70;1.90;;;11.60;99.90;;;;;;5041023;28;20616;-36
2023/10/30 01:18:32;;;;;;;4.40;1.42;;;11.70;99.90;;;;;;5040483;28;20029;-37
2023/10/30 01:20:57;;;;;;;5.65;1.40;;;11.70;99.90;;;;;;5039913;28;20087;-37
2023/10/30 01:23:23;;;;;;;5.90;1.50;;;11.70;99.90;;;;;;5039889;28;20523;-37
2023/10/30 01:25:49;;;;;;;4.32;1.52;;;11.70;99.90;;;;;;5040755;28;20033;-34
2023/10/30 01:28:15;;;;;;;4.55;2.10;;;11.70;99.90;;;;;;5040649;28;20036;-37
2023/10/30 01:30:40;;;;;;;6.72;1.38;;;11.70;99.90;;;;;;5041746;28;20035;-35
2023/10/30 01:33:06;;;;;;;5.70;1.73;;;11.70;99.90;;;;;;5040830;28;20025;-36
2023/10/30 01:35:31;;;;;;;5.47;1.63;;;11.60;99.90;;;;;;5040791;28;20049;-37
2023/10/30 01:37:57;;;;;;;4.65;1.45;;;11.60;99.90;;;;;;5041052;28;20020;-37
2023/10/30 01:40:23;;;;;;;5.80;1.50;;;11.70;99.90;;;;;;5040870;28;20108;-37
2023/10/30 01:42:49;;;;;;;5.82;1.50;;;11.70;99.90;;;;;;5039728;28;20033;-37
2023/10/30 01:45:14;;;;;;;4.80;1.40;;;11.70;99.90;;;;;;5039949;28;20024;-37
2023/10/30 01:47:42;;;;;;;5.80;1.33;;;11.70;99.90;;;;;;5041355;28;20029;-37
2023/10/30 01:50:09;;;;;;;4.63;1.50;;;11.70;99.90;;;;;;5040498;28;20051;-44
2023/10/30 01:52:37;;;;;;;4.65;1.83;;;11.70;99.90;;;;;;5041014;28;20029;-35
2023/10/30 01:55:04;;;;;;;4.25;1.23;;;11.70;99.90;;;;;;5040597;28;20433;-35
2023/10/30 01:57:32;;;;;;;7.18;2.15;;;11.70;99.90;;;;;;5040104;28;20025;-36
2023/10/30 01:59:58;;;;;;;4.32;1.40;;;11.70;99.90;;;;;;5040032;28;20017;-35
2023/10/30 02:02:25;;;;;;;4.57;1.33;;;11.70;99.90;;;;;;5040512;28;20051;-36
2023/10/30 02:04:51;;;;;;;5.10;1.30;;;11.70;99.90;;;;;;5041107;28;20044;-36
2023/10/30 02:07:19;;;;;;;6.18;1.35;;;11.70;99.90;;;;;;5040056;28;20029;-36
2023/10/30 02:09:45;;;;;;;4.10;1.20;;;11.70;99.90;;;;;;5040468;28;20035;-37
2023/10/30 02:12:10;;;;;;;5.22;1.48;;;11.70;99.90;;;;;;5040662;28;20017;-37
2023/10/30 02:14:36;;;;;;;7.57;1.52;;;11.70;99.90;;;;;;5040925;28;20832;-36
2023/10/30 02:17:01;;;;;;;5.68;1.58;;;11.70;99.90;;;;;;5041114;28;20468;-35
2023/10/30 02:19:27;;;;;;;4.72;1.40;;;11.80;99.90;;;;;;5040634;28;20287;-36
2023/10/30 02:21:56;;;;;;;7.40;1.63;;;11.80;99.90;;;;;;5040604;28;20153;-36
2023/10/30 02:24:22;;;;;;;3.25;1.30;;;11.80;99.90;;;;;;5039532;28;20374;-39
2023/10/30 02:26:49;;;;;;;5.97;1.25;;;11.80;99.90;;;;;;5040491;28;20086;-35
2023/10/30 02:29:15;;;;;;;3.88;1.23;;;11.80;99.90;;;;;;5039977;28;20024;-40
2023/10/30 02:31:41;;;;;;;4.57;1.60;;;11.80;99.90;;;;;;5039824;28;20029;-36
2023/10/30 02:34:07;;;;;;;4.07;1.15;;;11.80;99.90;;;;;;5039898;28;20827;-37
2023/10/30 02:36:32;;;;;;;1.63;0.80;;;11.90;99.90;;;;;;5043909;28;20013;-42
2023/10/30 02:38:58;;;;;;;5.47;1.42;;;11.90;99.90;;;;;;5043377;28;20044;-46
2023/10/30 02:41:23;;;;;;;2.58;1.08;;;11.80;99.90;;;;;;5044056;28;20032;-35
2023/10/30 02:43:49;;;;;;;3.90;1.50;;;11.90;99.90;;;;;;5045030;28;20025;-36
2023/10/30 02:46:14;;;;;;;6.50;1.27;;;11.90;99.90;;;;;;5043069;28;20125;-35
2023/10/30 02:48:43;;;;;;;2.50;1.40;;;11.90;99.90;;;;;;5044770;28;20071;-39
2023/10/30 02:51:08;;;;;;;6.53;1.73;;;11.90;99.90;;;;;;5043511;28;20025;-36
2023/10/30 02:53:34;;;;;;;6.05;1.67;;;11.90;99.90;;;;;;5043347;28;20031;-36
2023/10/30 02:56:02;;;;;;;3.88;1.35;;;11.90;99.90;;;;;;5043749;28;20132;-42
2023/10/30 02:58:31;;;;;;;6.65;1.52;;;11.90;99.90;;;;;;5043753;28;20036;-35
2023/10/30 03:00:57;;;;;;;4.45;1.23;;;11.90;99.90;;;;;;5043792;28;20036;-36
2023/10/30 03:03:23;;;;;;;4.97;1.50;;;11.90;99.90;;;;;;5044753;28;20032;-36
2023/10/30 03:05:49;;;;;;;4.25;1.10;;;11.90;99.90;;;;;;5042833;28;20041;-35
2023/10/30 03:08:18;;;;;;;6.38;1.80;;;11.90;99.90;;;;;;5043275;28;20472;-35
2023/10/30 03:10:46;;;;;;;4.78;1.52;;;11.90;99.90;;;;;;5043380;28;20029;-36
2023/10/30 03:13:11;;;;;;;7.30;2.10;;;11.90;99.90;;;;;;5042448;28;20032;-35
2023/10/30 03:15:37;;;;;;;7.82;2.85;;;11.90;99.90;;;;;;5043906;28;20025;-36
2023/10/30 03:18:03;;;;;;;2.90;1.20;;;11.90;99.90;;;;;;5043459;28;20080;-36
2023/10/30 03:20:28;;;;;;;5.57;1.42;;;11.90;99.90;;;;;;5043266;28;20877;-35
2023/10/30 03:22:54;;;;;;;2.45;0.95;;;11.80;99.90;;;;;;5043559;28;20025;-35
2023/10/30 03:25:19;;;;;;;2.20;1.05;;;11.80;99.90;;;;;;5043722;28;20064;-36
2023/10/30 03:27:45;;;;;;;1.77;0.73;;;11.80;99.90;;;;;;5043297;28;20021;-35
2023/10/30 03:30:13;;;;;;;2.63;0.82;;;11.80;99.90;;;;;;5043089;28;20144;-35
2023/10/30 03:32:39;;;;;;;3.45;0.85;;;11.80;99.90;;;;;;5043652;28;20131;-35
2023/10/30 03:35:07;;;;;;;5.20;1.38;;;11.80;99.90;;;;;;5042120;28;20048;-37
2023/10/30 03:37:34;;;;;;;2.05;0.80;;;11.80;99.90;;;;;;5042343;28;20448;-36
2023/10/30 03:40:05;;;;;;;2.20;0.77;;;11.80;99.90;;;;;;5043116;28;20032;-35
2023/10/30 03:42:31;;;;;;;2.83;0.90;;;11.70;99.90;;;;;;5042471;28;20638;-37
2023/10/30 03:44:57;;;;;;;3.08;0.93;;;11.70;99.90;;;;;;5042537;28;20109;-36
2023/10/30 03:47:25;;;;;;;3.50;0.88;;;11.70;99.90;;;;;;5041967;28;20082;-36
2023/10/30 03:49:56;;;;;;;4.63;1.10;;;11.70;99.90;;;;;;5043734;28;20112;-45
2023/10/30 03:52:22;;;;;;;1.83;1.10;;;11.60;99.90;;;;;;5043671;28;20075;-37
2023/10/30 03:54:48;;;;;;;2.63;0.93;;;11.60;99.90;;;;;;5042875;28;20040;-36
2023/10/30 03:57:14;;;;;;;2.80;0.80;;;11.60;99.90;;;;;;5042804;28;20094;-36
2023/10/30 03:59:40;;;;;;;6.40;2.42;;;11.60;99.90;;;;;;5043643;28;20539;-37
2023/10/30 04:02:06;;;;;;;3.45;0.95;;;11.50;99.90;;;;;;5042027;28;20028;-39
2023/10/30 04:04:31;;;;;;;3.83;1.27;;;11.50;99.90;;;;;;5042514;28;20059;-36
2023/10/30 04:06:57;;;;;;;3.00;0.85;;;11.50;99.90;;;;;;5042142;28;20094;-36
2023/10/30 04:09:25;;;;;;;3.03;0.90;;;11.50;99.90;;;;;;5041025;28;20040;-34
2023/10/30 04:11:51;;;;;;;2.63;0.80;;;11.50;99.90;;;;;;5042415;28;20025;-35
2023/10/30 04:14:16;;;;;;;1.83;0.70;;;11.40;99.90;;;;;;5041881;28;20061;-34
2023/10/30 04:16:42;;;;;;;2.05;0.77;;;11.40;99.90;;;;;;5042236;28;20033;-35
2023/10/30 04:19:08;;;;;;;2.92;0.80;;;11.40;99.90;;;;;;5041813;28;20188;-35
2023/10/30 04:21:34;;;;;;;3.75;0.85;;;11.30;99.90;;;;;;5042534;28;20098;-36
2023/10/30 04:23:59;;;;;;;2.35;1.00;;;11.30;99.90;;;;;;5041385;28;20581;-35
2023/10/30 04:26:25;;;;;;;3.35;0.95;;;11.30;99.90;;;;;;5042541;28;20048;-35
2023/10/30 04:28:51;;;;;;;3.08;0.98;;;11.20;99.90;;;;;;5042165;28;20495;-36
2023/10/30 04:31:16;;;;;;;3.67;0.80;;;11.20;99.90;;;;;;5041669;28;20527;-36
2023/10/30 04:33:42;;;;;;;1.52;0.82;;;11.20;99.90;;;;;;5042375;28;20528;-36
2023/10/30 04:36:08;;;;;;;2.78;1.00;;;11.20;99.90;;;;;;5041135;28;20045;-37
2023/10/30 04:38:34;;;;;;;2.80;1.00;;;11.20;99.90;;;;;;5041014;28;20020;-37
2023/10/30 04:41:06;;;;;;;1.98;1.00;;;11.10;99.90;;;;;;5041400;28;20388;-36
2023/10/30 04:43:32;;;;;;;2.58;0.95;;;11.10;99.90;;;;;;5041573;28;20020;-35
2023/10/30 04:45:58;;;;;;;2.28;0.80;;;11.10;99.90;;;;;;5041025;28;20090;-36
2023/10/30 04:48:23;;;;;;;3.03;1.05;;;11.10;99.90;;;;;;5041457;28;20025;-37
2023/10/30 04:50:49;;;;;;;3.17;0.90;;;11.10;99.90;;;;;;5041559;28;20404;-37
2023/10/30 04:53:14;;;;;;;2.83;1.17;;;11.10;99.90;;;;;;5041967;28;20067;-36
2023/10/30 04:55:40;;;;;;;2.45;0.80;;;11.10;99.90;;;;;;5041725;28;20400;-36
2023/10/30 04:58:06;;;;;;;2.55;1.17;;;11.10;99.90;;;;;;5040114;28;20021;-36
2023/10/30 05:00:32;;;;;;;2.95;0.80;;;11.00;99.90;;;;;;5040484;28;20128;-36
2023/10/30 05:02:57;;;;;;;3.30;1.00;;;11.00;99.90;;;;;;5041199;28;20025;-35
2023/10/30 05:05:23;;;;;;;3.72;1.00;;;11.00;99.90;;;;;;5040681;28;20376;-36
2023/10/30 05:07:49;;;;;;;4.15;0.90;;;11.00;99.90;;;;;;5041552;28;20025;-36
2023/10/30 05:10:14;;;;;;;1.80;0.80;;;11.00;99.90;;;;;;5040527;28;20028;-36
2023/10/30 05:12:40;;;;;;;3.92;1.10;;;11.00;99.90;;;;;;5040276;28;20037;-36
2023/10/30 05:15:08;;;;;;;2.78;1.13;;;11.00;99.90;;;;;;5040469;28;20104;-37
2023/10/30 05:17:39;;;;;;;2.47;0.80;;;11.00;99.90;;;;;;5041046;28;20025;-36
2023/10/30 05:20:06;;;;;;;1.85;0.80;;;10.90;99.90;;;;;;5040584;28;20375;-37
2023/10/30 05:22:34;;;;;;;3.05;1.00;;;10.90;99.90;;;;;;5041158;28;20032;-36
2023/10/30 05:25:03;;;;;;;2.55;0.90;;;11.00;99.90;;;;;;5040418;28;20017;-35
2023/10/30 05:27:30;;;;;;;4.15;0.95;;;10.90;99.90;;;;;;5040164;28;20119;-35
2023/10/30 05:29:56;;;;;;;1.85;0.88;;;10.90;99.90;;;;;;5040949;28;20108;-36
2023/10/30 05:32:21;;;;;;;2.50;0.82;;;10.90;99.90;;;;;;5041188;28;20369;-37
2023/10/30 05:34:50;;;;;;;2.80;0.90;;;10.90;99.90;;;;;;5040552;28;20563;-37
2023/10/30 05:37:16;;;;;;;3.50;0.90;;;10.90;99.90;;;;;;5039679;28;20025;-37
2023/10/30 05:39:42;;;;;;;3.15;0.98;;;10.90;99.90;;;;;;5040879;28;20021;-37
2023/10/30 05:42:08;;;;;;;4.18;1.15;;;10.80;99.90;;;;;;5040851;28;20098;-38
2023/10/30 05:44:34;;;;;;;1.88;0.90;;;10.80;99.90;;;;;;5041363;28;20033;-35
2023/10/30 05:46:59;;;;;;;6.22;1.10;;;10.90;99.90;;;;;;5040621;28;20520;-37
2023/10/30 05:49:28;;;;;;;3.22;1.05;;;10.90;99.90;;;;;;5040340;28;20025;-36
2023/10/30 05:51:54;;;;;;;3.22;0.80;;;10.90;99.90;;;;;;5040179;28;20535;-38
2023/10/30 05:54:21;;;;;;;4.38;1.35;;;10.90;99.90;;;;;;5039753;28;20057;-38
2023/10/30 05:56:46;;;;;;;2.67;1.00;;;10.90;99.90;;;;;;5041022;28;20035;-36
2023/10/30 05:59:12;;;;;;;4.18;1.08;;;10.80;99.90;;;;;;5041156;28;20058;-37
2023/10/30 06:01:38;;;;;;;3.00;1.23;;;10.90;99.90;;;;;;5040363;28;20049;-37
2023/10/30 06:04:04;;;;;;;3.92;1.15;;;10.90;99.90;;;;;;5038432;28;20036;-41
2023/10/30 06:06:29;;;;;;;4.15;0.90;;;10.80;99.90;;;;;;5038508;28;20037;-37
2023/10/30 06:08:55;;;;;;;2.65;1.10;;;10.80;99.90;;;;;;5039961;28;20032;-37
2023/10/30 06:11:21;;;;;;;1.92;0.90;;;10.90;99.90;;;;;;5043900;28;20492;-37
2023/10/30 06:13:46;;;;;;;2.70;1.00;;;10.80;99.90;;;;;;5043671;28;20021;-36
2023/10/30 06:16:18;;;;;;;2.75;0.88;;;10.80;99.90;;;;;;5043497;28;20029;-38
2023/10/30 06:18:45;;;;;;;5.47;0.90;;;10.80;99.90;;;;;;5043774;28;20067;-36
2023/10/30 06:21:18;;;;;;;3.13;1.00;;;10.80;99.90;;;;;;5044174;28;20028;-36
2023/10/30 06:23:43;;;;;;;;;;;10.80;99.90;;;;;;5043714;28;20578;-36
2023/10/30 06:26:10;;;;;;;1.63;0.90;;;10.80;99.90;;;;;;5043819;28;19917;-37
2023/10/30 06:28:37;;;;;;;3.42;1.00;;;10.80;99.90;;;;;;5043589;28;20062;-36
2023/10/30 06:31:16;;;;;;;1.48;0.90;;;10.70;99.90;;;;;;5043140;28;20033;-36
2023/10/30 06:33:42;;;;;;;3.20;0.90;;;10.70;99.90;;;;;;5042827;28;20013;-37
2023/10/30 06:36:08;;;;;;;2.80;0.90;;;10.70;99.90;;;;;;5023097;28;20053;-37
2023/10/30 06:38:34;;;;;;;2.22;0.95;;;10.70;99.90;;;;;;5036360;28;20025;-37
2023/10/30 06:41:00;;;;;;;1.80;0.77;;;10.70;99.90;;;;;;5043573;28;20047;-36
2023/10/30 06:43:25;;;;;;;3.80;1.00;;;10.70;99.90;;;;;;5041809;28;20021;-36
2023/10/30 06:46:04;;;;;;;2.42;1.00;;;10.70;99.90;;;;;;5042547;28;20044;-36
2023/10/30 06:48:30;;;;;;;3.35;0.90;;;10.80;99.90;;;;;;5042346;28;20126;-38
2023/10/30 06:50:56;;;;;;;2.53;1.20;;;10.80;99.90;;;;;;5042530;28;20025;-36
2023/10/30 06:53:22;;;;;;;3.28;1.17;;;10.70;99.90;;;;;;5042469;28;20036;-36
2023/10/30 06:55:48;;;;;;;5.13;1.15;;;10.70;99.90;;;;;;5043000;28;20037;-36
2023/10/30 06:58:13;;;;;;;3.00;1.23;;;10.80;99.90;;;;;;5042002;28;20021;-36
2023/10/30 07:00:39;;;;;;;3.85;1.17;;;10.80;99.90;;;;;;5042694;28;20025;-36
2023/10/30 07:03:05;;;;;;;4.30;1.20;;;10.80;99.90;;;;;;5042822;28;20362;-37
2023/10/30 07:05:30;;;;;;;3.10;1.00;;;10.80;99.90;;;;;;5042377;28;20128;-37
2023/10/30 07:07:56;;;;;;;2.28;1.02;;;10.90;99.90;;;;;;5043236;28;20104;-35
2023/10/30 07:10:21;;;;;;;1.85;0.82;;;10.90;99.90;;;;;;5041456;28;20468;-37
2023/10/30 07:12:47;;;;;;;2.97;1.02;;;10.90;99.90;;;;;;5041996;28;20025;-37
2023/10/30 07:15:13;;;;;;;2.20;1.00;;;10.90;99.90;;;;;;5042538;28;20584;-36
2023/10/30 07:17:38;;;;;;;3.55;1.10;;;11.00;99.90;;;;;;5043708;28;20693;-36
2023/10/30 07:20:04;;;;;;;1.45;0.70;;;11.00;99.90;;;;;;5042413;28;20114;-35
2023/10/30 07:22:36;;;;;;;4.07;1.10;;;11.10;99.90;;;;;;5043267;28;20029;-37
2023/10/30 07:25:02;;;;;;;6.20;1.10;;;11.10;99.90;;;;;;5041909;28;20013;-35
2023/10/30 07:27:37;;;;;;;3.72;1.58;;;11.20;99.90;;;;;;5041473;28;20400;-37
2023/10/30 07:30:03;;;;;;;4.93;1.50;;;11.20;99.90;;;;;;5042021;28;20051;-36
2023/10/30 07:32:29;;;;;;;3.58;1.60;;;11.30;99.90;;;;;;5042424;28;20025;-36
2023/10/30 07:34:55;;;;;;;5.35;1.38;;;11.30;99.90;;;;;;5042275;28;20072;-37
2023/10/30 07:37:20;;;;;;;4.13;1.40;;;11.40;99.90;;;;;;5042680;28;20690;-36
2023/10/30 07:39:46;;;;;;;2.45;1.00;;;11.40;99.90;;;;;;5042864;28;20888;-36
2023/10/30 07:42:12;;;;;;;2.28;1.00;;;11.50;99.90;;;;;;5043289;28;20086;-36
2023/10/30 07:44:37;;;;;;;3.85;1.13;;;11.50;99.90;;;;;;5043507;28;20033;-36
2023/10/30 07:47:04;;;;;;;2.53;1.20;;;11.50;99.90;;;;;;5042251;28;20035;-35
2023/10/30 07:49:29;;;;;;;4.05;1.08;;;11.60;99.90;;;;;;5042539;28;20112;-36
2023/10/30 07:51:55;;;;;;;2.78;1.00;;;11.60;99.90;;;;;;5042391;28;20021;-36
2023/10/30 07:54:23;;;;;;;5.20;1.10;;;11.70;99.90;;;;;;5042139;28;20571;-37
2023/10/30 07:56:49;;;;;;;4.15;1.20;;;11.70;99.90;;;;;;5042563;28;20028;-36
2023/10/30 07:59:15;;;;;;;5.43;1.63;;;11.70;99.90;;;;;;5042754;28;20033;-36
2023/10/30 08:01:40;;;;;;;5.03;1.67;;;11.80;99.90;;;;;;5042145;28;20025;-37
2023/10/30 08:04:09;;;;;;;3.97;1.27;;;11.80;99.90;;;;;;5042780;28;20029;-37
2023/10/30 08:06:35;;;;;;;5.80;1.45;;;11.80;99.90;;;;;;5042351;28;20098;-36
2023/10/30 08:09:00;;;;;;;3.75;1.27;;;11.80;99.90;;;;;;5041751;28;20028;-36
2023/10/30 08:11:27;;;;;;;4.25;1.38;;;11.80;99.90;;;;;;5041810;28;20032;-37
2023/10/30 08:13:55;;;;;;;4.53;1.38;;;11.80;99.90;;;;;;5042593;28;20040;-36
2023/10/30 08:16:21;;;;;;;4.32;1.23;;;11.90;99.90;;;;;;5041933;28;20025;-36
2023/10/30 08:18:46;;;;;;;3.50;1.02;;;11.90;99.90;;;;;;5042465;28;20508;-36
2023/10/30 08:21:13;;;;;;;5.50;1.63;;;12.00;99.90;;;;;;5042166;28;20433;-38
2023/10/30 08:23:39;;;;;;;3.53;1.23;;;12.00;99.90;;;;;;5042368;28;20017;-36
2023/10/30 08:26:06;;;;;;;4.38;1.38;;;12.10;99.90;;;;;;5041713;28;20091;-36
2023/10/30 08:28:31;;;;;;;4.18;1.50;;;12.10;99.90;;;;;;5041836;28;20642;-35
2023/10/30 08:30:57;;;;;;;4.30;1.40;;;12.20;99.90;;;;;;5040929;28;20039;-36
2023/10/30 08:33:22;;;;;;;3.55;1.25;;;12.30;99.90;;;;;;5041695;28;20138;-36
2023/10/30 08:35:48;;;;;;;2.83;1.40;;;12.30;99.90;;;;;;5042137;28;20147;-37
2023/10/30 08:38:14;;;;;;;3.63;1.48;;;12.40;99.90;;;;;;5041667;28;20071;-37
2023/10/30 08:40:40;;;;;;;3.90;1.50;;;12.40;99.90;;;;;;5042616;28;20135;-37
2023/10/30 08:43:06;;;;;;;4.43;1.90;;;12.50;99.90;;;;;;5040992;28;20033;-37
2023/10/30 08:45:31;;;;;;;3.92;1.88;;;12.50;99.90;;;;;;5042072;28;20040;-37
2023/10/30 08:47:57;;;;;;;2.88;1.38;;;12.60;99.90;;;;;;5041885;28;20082;-37
2023/10/30 08:50:22;;;;;;;2.55;1.27;;;12.70;99.90;;;;;;5041450;28;20048;-38
2023/10/30 08:52:48;;;;;;;5.05;1.60;;;12.70;99.90;;;;;;5041847;28;20036;-37
2023/10/30 08:55:14;;;;;;;5.90;1.58;;;12.80;99.90;;;;;;5041181;28;20826;-35
2023/10/30 08:57:39;;;;;;;3.58;1.48;;;12.90;99.90;;;;;;5041218;28;20055;-35
2023/10/30 09:00:09;;;;;;;4.32;1.40;;;13.00;99.90;;;;;;5041805;28;20067;-37
2023/10/30 09:02:36;;;;;;;5.32;1.95;;;13.00;99.90;;;;;;5041536;28;20120;-37
2023/10/30 09:05:03;;;;;;;2.97;1.50;;;13.10;99.90;;;;;;5041582;28;20032;-37
2023/10/30 09:07:29;;;;;;;2.65;1.35;;;13.10;99.90;;;;;;5041765;28;20060;-36
2023/10/30 09:09:55;;;;;;;4.25;1.73;;;13.20;99.90;;;;;;5040566;28;20075;-38
2023/10/30 09:12:21;;;;;;;6.68;1.63;;;13.30;99.90;;;;;;5040124;28;20024;-36
2023/10/30 09:14:52;;;;;;;6.00;1.33;;;13.30;99.90;;;;;;5039323;28;20505;-36
2023/10/30 09:17:24;;;;;;;4.25;1.67;;;13.30;99.90;;;;;;5041154;28;20380;-36
2023/10/30 09:19:49;;;;;;;3.08;1.08;;;13.40;99.90;;;;;;5041103;28;20067;-36
2023/10/30 09:22:15;;;;;;;3.42;1.10;;;13.40;99.90;;;;;;5040315;28;20116;-36
2023/10/30 09:24:41;;;;;;;4.13;1.60;;;13.40;99.90;;;;;;5040987;28;20353;-35
2023/10/30 09:27:07;;;;;;;5.13;1.45;;;13.50;99.90;;;;;;5040666;28;20918;-36
2023/10/30 09:29:39;;;;;;;6.72;1.70;;;13.50;99.90;;;;;;5041129;28;20087;-35
2023/10/30 09:32:05;;;;;;;4.97;1.40;;;13.50;99.90;;;;;;5021013;28;20431;-37
2023/10/30 09:34:34;;;;;;;3.70;1.23;;;13.60;99.90;;;;;;5035620;28;20073;-37
2023/10/30 09:37:03;;;;;;;3.60;1.20;;;13.60;99.90;;;;;;5040274;28;20075;-36
2023/10/30 09:39:28;;;;;;;3.95;1.42;;;13.70;99.90;;;;;;5037913;28;20024;-36
2023/10/30 09:41:57;;;;;;;4.65;1.90;;;13.70;99.90;;;;;;5041013;28;20040;-37
2023/10/30 09:44:24;;;;;;;5.10;1.40;;;13.70;99.90;;;;;;5040589;28;20025;-36
2023/10/30 09:46:50;;;;;;;4.13;1.45;;;13.70;99.90;;;;;;5040334;28;20789;-37
2023/10/30 09:49:16;;;;;;;5.15;1.70;;;13.80;99.90;;;;;;5041020;28;20027;-36
2023/10/30 09:51:45;;;;;;;5.43;1.17;;;13.80;99.90;;;;;;5040635;28;20747;-36
2023/10/30 09:54:23;;;;;;;4.57;2.17;;;13.80;99.90;;;;;;5039234;28;20029;-37
2023/10/30 09:56:49;;;;;;;2.42;1.30;;;13.90;99.90;;;;;;5041022;28;20066;-35
2023/10/30 09:59:16;;;;;;;4.43;1.30;;;13.90;99.90;;;;;;5039929;28;20086;-36
2023/10/30 10:01:42;;;;;;;3.78;1.17;;;14.00;99.90;;;;;;5029260;28;20082;-36
2023/10/30 10:04:08;;;;;;;4.60;1.30;;;14.00;99.90;;;;;;5040216;28;20025;-37
2023/10/30 10:06:35;;;;;;;6.40;1.60;;;14.10;99.90;;;;;;5040556;28;20071;-36
2023/10/30 10:09:04;;;;;;;4.78;1.52;;;14.10;99.90;;;;;;5040446;28;20025;-36
2023/10/30 10:11:36;;;;;;;2.58;1.30;;;14.10;99.90;;;;;;5040737;28;20033;-37
2023/10/30 10:14:02;;;;;;;3.33;1.27;;;14.10;99.90;;;;;;5040854;28;20082;-36
2023/10/30 10:16:30;;;;;;;4.03;1.35;;;14.10;99.90;;;;;;5039098;28;20033;-37
2023/10/30 10:18:55;;;;;;;3.47;1.20;;;14.10;99.90;;;;;;5040535;28;20049;-37
2023/10/30 10:21:22;;;;;;;5.32;1.30;;;14.10;99.90;;;;;;5039542;28;20159;-36
2023/10/30 10:23:48;;;;;;;2.17;1.00;;;14.10;99.90;;;;;;5040932;28;20025;-38
2023/10/30 10:26:14;;;;;;;3.63;1.40;;;14.10;99.90;;;;;;5039837;28;20040;-36
2023/10/30 10:28:44;;;;;;;3.65;1.13;;;14.10;99.90;;;;;;5039804;28;20026;-37
2023/10/30 10:31:10;;;;;;;3.72;1.40;;;14.10;99.90;;;;;;5039649;28;20062;-36
2023/10/30 10:33:37;;;;;;;3.47;1.40;;;14.20;99.90;;;;;;5039868;28;20045;-37
2023/10/30 10:36:05;;;;;;;4.20;1.40;;;14.20;99.90;;;;;;5038728;28;20037;-35
2023/10/30 10:38:31;;;;;;;3.20;1.30;;;14.20;99.90;;;;;;5039250;28;20025;-36
2023/10/30 10:40:57;;;;;;;2.70;1.13;;;14.20;99.90;;;;;;5040051;28;20123;-36
2023/10/30 10:43:26;;;;;;;3.58;1.40;;;14.30;99.90;;;;;;5040160;28;20107;-36
2023/10/30 10:45:53;;;;;;;4.55;1.45;;;14.30;99.90;;;;;;5041018;28;20423;-38
2023/10/30 10:48:19;;;;;;;3.72;1.10;;;14.30;99.90;;;;;;5041072;28;20025;-35
2023/10/30 10:50:46;;;;;;;4.10;1.40;;;14.30;99.90;;;;;;5039051;28;20025;-36
2023/10/30 10:53:12;;;;;;;3.28;1.45;;;14.40;99.90;;;;;;5039534;28;20051;-36
2023/10/30 10:55:46;;;;;;;3.83;1.20;;;14.40;99.90;;;;;;5040344;28;20407;-38
2023/10/30 10:58:19;;;;;;;2.40;1.02;;;14.40;99.90;;;;;;5039836;28;20214;-36
2023/10/30 11:00:50;;;;;;;2.15;1.00;;;14.40;99.90;;;;;;5044246;28;20029;-38
2023/10/30 11:03:17;;;;;;;4.38;1.30;;;14.40;99.90;;;;;;5044151;28;20490;-36
2023/10/30 11:05:44;;;;;;;4.78;1.40;;;14.50;99.90;;;;;;5044168;28;20032;-35
2023/10/30 11:08:46;;;;;;;2.65;1.17;;;14.50;99.90;;;;;;5043881;28;20376;-36
2023/10/30 11:11:28;;;;;;;2.97;1.20;;;14.50;99.90;;;;;;5042020;28;20057;-36
2023/10/30 11:14:14;;;;;;;1.58;1.00;;;14.60;99.90;;;;;;5042069;28;20080;-36
2023/10/30 11:16:53;;;;;;;2.38;1.00;;;14.70;99.90;;;;;;5043728;28;20472;-36
2023/10/30 11:19:26;;;;;;;2.38;1.20;;;14.80;99.90;;;;;;5032793;28;20021;-39
2023/10/30 11:21:51;;;;;;;3.08;1.10;;;14.80;99.90;;;;;;5043461;28;20028;-36
2023/10/30 11:24:38;;;;;;;4.40;1.45;;;14.90;99.90;;;;;;5043378;28;20032;-36
2023/10/30 11:27:26;;;;;;;3.10;1.23;;;14.90;99.90;;;;;;5043069;28;20087;-37
2023/10/30 11:29:54;;;;;;;3.67;1.17;;;14.90;99.90;;;;;;5033731;28;20114;-39
2023/10/30 11:32:20;;;;;;;4.18;1.30;;;14.90;99.90;;;;;;5042372;28;20025;-38
2023/10/30 11:34:46;;;;;;;3.47;1.90;;;14.90;99.90;;;;;;5042889;28;20052;-36
2023/10/30 11:37:14;;;;;;;3.90;1.20;;;14.90;99.90;;;;;;5042234;28;20066;-37
2023/10/30 11:39:43;;;;;;;2.75;1.08;;;15.00;99.90;;;;;;5043189;28;20021;-37
2023/10/30 11:42:34;;;;;;;4.70;1.40;;;15.00;99.90;;;;;;5043415;28;20021;-37
2023/10/30 11:45:22;;;;;;;4.43;1.50;;;15.00;99.90;;;;;;5041879;28;20032;-35
2023/10/30 11:47:58;;;;;;;3.78;1.58;;;15.10;99.90;;;;;;5042684;28;20037;-35
2023/10/30 11:50:25;;;;;;;4.00;1.80;;;15.10;99.90;;;;;;5032708;28;20071;-36
2023/10/30 11:53:10;;;;;;;3.17;1.30;;;15.10;99.90;;;;;;5041596;28;20072;-36
2023/10/30 11:55:37;;;;;;;3.47;1.48;;;15.10;99.90;;;;;;5032172;28;20124;-35
2023/10/30 11:58:03;;;;;;;3.67;1.40;;;15.20;99.90;;;;;;5042259;28;20025;-38
2023/10/30 12:00:30;;;;;;;3.92;1.35;;;15.20;99.90;;;;;;5041255;28;20021;-37
2023/10/30 12:02:55;;;;;;;3.08;1.23;;;15.20;99.90;;;;;;5041791;28;20050;-36
2023/10/30 12:05:21;;;;;;;3.67;1.27;;;15.20;99.90;;;;;;5041671;28;20386;-36
2023/10/30 12:07:48;;;;;;;3.13;1.17;;;15.20;99.90;;;;;;5041383;28;20040;-35
2023/10/30 12:10:14;;;;;;;2.85;1.27;;;15.20;99.90;;;;;;5041758;28;20027;-36
2023/10/30 12:12:41;;;;;;;5.53;1.40;;;15.20;99.90;;;;;;5043145;28;20030;-36
2023/10/30 12:15:07;;;;;;;3.70;1.20;;;15.10;99.90;;;;;;5041853;28;20064;-37
2023/10/30 12:17:32;;;;;;;2.95;1.08;;;15.10;99.90;;;;;;5022273;28;20033;-36
2023/10/30 12:19:59;;;;;;;2.20;0.85;;;15.00;99.90;;;;;;5035618;28;20032;-37
2023/10/30 12:22:24;;;;;;;3.13;0.80;;;15.00;99.90;;;;;;5041104;28;20110;-37
2023/10/30 12:24:50;;;;;;;3.00;1.10;;;15.00;99.90;;;;;;5041934;28;20442;-38
2023/10/30 12:27:19;;;;;;;2.33;1.00;;;15.00;99.90;;;;;;5041830;28;20041;-37
2023/10/30 12:29:45;;;;;;;1.27;0.73;;;15.00;99.90;;;;;;5041148;28;20791;-36
2023/10/30 12:32:11;;;;;;;2.55;1.00;;;15.00;99.90;;;;;;5041646;28;20087;-35
2023/10/30 12:34:37;;;;;;;4.00;1.58;;;15.00;99.90;;;;;;5041761;28;20122;-36
2023/10/30 12:37:25;;;;;;;3.80;2.03;;;15.00;99.90;;;;;;5042542;28;20021;-37
2023/10/30 12:40:07;;;;;;;3.17;1.60;;;15.00;99.90;;;;;;5041796;28;20029;-37
2023/10/30 12:42:37;;;;;;;2.58;1.30;;;15.00;99.90;;;;;;5040372;28;20117;-36
2023/10/30 12:45:09;;;;;;;2.28;1.25;;;15.00;99.90;;;;;;5041931;28;20017;-35
2023/10/30 12:47:35;;;;;;;3.22;1.25;;;15.00;99.90;;;;;;5041799;28;20041;-35